Time,TemperatureF,DewpointF,PressureIn,WindDirection,WindDirectionDegrees,WindSpeedMPH,WindSpeedGustMPH,Humidity,HourlyPrecipIn,Conditions,Clouds,dailyrainin,SoftwareType,DateUTC
2013-03-05 00:00:00,21.7,16.5,30.18,NE,43,0.0,0.0,80,0.00,,,0.00,Wunderground v.1.12,2013-03-05 07:00:00,
2013-03-05 00:05:00,21.4,16.2,30.18,NE,43,0.0,0.0,80,0.00,,,0.00,Wunderground v.1.12,2013-03-05 07:05:00,
2013-03-05 00:10:00,21.3,16.4,30.17,NE,43,0.0,0.0,81,0.00,,,0.00,Wunderground v.1.12,2013-03-05 07:10:00,
2013-03-05 00:15:00,21.2,16.0,30.17,NE,43,0.0,0.0,80,0.00,,,0.00,Wunderground v.1.12,2013-03-05 07:15:00,
2013-03-05 00:20:00,21.0,15.8,30.17,NE,43,0.0,0.0,80,0.00,,,0.00,Wunderground v.1.12,2013-03-05 07:20:00,
2013-03-05 00:25:00,21.0,15.8,30.17,NE,43,0.0,0.0,80,0.00,,,0.00,Wunderground v.1.12,2013-03-05 07:25:00,
2013-03-05 00:35:00,20.7,15.8,30.17,NE,43,0.0,0.0,81,0.00,,,0.00,Wunderground v.1.12,2013-03-05 07:35:00,
2013-03-05 00:40:00,20.8,15.9,30.17,NE,43,0.0,0.0,81,0.00,,,0.00,Wunderground v.1.12,2013-03-05 07:40:00,
2013-03-05 00:45:00,20.5,15.3,30.17,NE,43,0.0,0.0,80,0.00,,,0.00,Wunderground v.1.12,2013-03-05 07:45:00,
2013-03-05 00:50:00,20.4,15.5,30.16,NE,43,0.0,0.0,81,0.00,,,0.00,Wunderground v.1.12,2013-03-05 07:50:00,
2013-03-05 00:55:00,20.3,15.4,30.17,NE,43,0.0,0.0,81,0.00,,,0.00,Wunderground v.1.12,2013-03-05 07:55:00,
2013-03-05 01:00:00,20.1,15.2,30.17,NE,43,0.0,0.0,81,0.00,,,0.00,Wunderground v.1.12,2013-03-05 08:00:00,
2013-03-05 01:05:00,20.5,15.6,30.16,N/A,-737280,0.0,0.0,81,0.00,,,0.00,Wunderground v.1.12,2013-03-05 08:05:00,
2013-03-05 01:15:00,19.5,14.3,30.16,NE,43,0.0,0.0,80,0.00,,,0.00,Wunderground v.1.12,2013-03-05 08:15:00,
2013-03-05 01:20:00,19.6,14.7,30.16,NE,43,0.0,0.0,81,0.00,,,0.00,Wunderground v.1.12,2013-03-05 08:20:00,
2013-03-05 01:25:00,19.4,14.5,30.17,NE,43,0.0,0.0,81,0.00,,,0.00,Wunderground v.1.12,2013-03-05 08:25:00,
2013-03-05 01:30:00,19.6,14.7,30.17,NE,43,0.0,0.0,81,0.00,,,0.00,Wunderground v.1.12,2013-03-05 08:30:00,
2013-03-05 01:35:00,19.3,14.4,30.17,NE,43,0.0,0.0,81,0.00,,,0.00,Wunderground v.1.12,2013-03-05 08:35:00,
2013-03-05 01:40:00,19.4,14.8,30.16,NE,43,0.0,0.0,82,0.00,,,0.00,Wunderground v.1.12,2013-03-05 08:40:00,
2013-03-05 01:45:00,19.2,14.6,30.17,NE,43,0.0,0.0,82,0.00,,,0.00,Wunderground v.1.12,2013-03-05 08:45:00,
2013-03-05 01:55:00,19.1,14.2,30.17,NE,43,0.0,0.0,81,0.00,,,0.00,Wunderground v.1.12,2013-03-05 08:55:00,
2013-03-05 02:00:00,18.7,13.8,30.17,NE,43,0.0,0.0,81,0.00,,,0.00,Wunderground v.1.12,2013-03-05 09:00:00,
2013-03-05 02:10:00,18.7,13.8,30.17,NE,43,0.0,0.0,81,0.00,,,0.00,Wunderground v.1.12,2013-03-05 09:10:00,
2013-03-05 02:15:00,18.6,13.7,30.17,NE,43,0.0,0.0,81,0.00,,,0.00,Wunderground v.1.12,2013-03-05 09:15:00,
2013-03-05 02:20:00,18.5,13.6,30.17,NE,43,0.0,0.0,81,0.00,,,0.00,Wunderground v.1.12,2013-03-05 09:20:00,
2013-03-05 02:25:00,18.5,13.6,30.17,NE,43,0.0,0.0,81,0.00,,,0.00,Wunderground v.1.12,2013-03-05 09:25:00,
2013-03-05 02:30:00,18.3,13.4,30.18,NE,43,0.0,0.0,81,0.00,,,0.00,Wunderground v.1.12,2013-03-05 09:30:00,
2013-03-05 02:40:00,18.3,13.4,30.17,NE,43,0.0,0.0,81,0.00,,,0.00,Wunderground v.1.12,2013-03-05 09:40:00,
2013-03-05 02:45:00,18.1,13.3,30.17,NE,43,0.0,0.0,81,0.00,,,0.00,Wunderground v.1.12,2013-03-05 09:45:00,
2013-03-05 02:50:00,17.9,13.1,30.17,NE,43,0.0,0.0,81,0.00,,,0.00,Wunderground v.1.12,2013-03-05 09:50:00,
2013-03-05 02:55:00,18.0,13.2,30.18,NE,43,0.0,0.0,81,0.00,,,0.00,Wunderground v.1.12,2013-03-05 09:55:00,
2013-03-05 03:00:00,18.0,13.4,30.17,NE,43,0.0,0.0,82,0.00,,,0.00,Wunderground v.1.12,2013-03-05 10:00:00,
2013-03-05 03:05:00,17.8,13.2,30.17,NE,43,0.0,0.0,82,0.00,,,0.00,Wunderground v.1.12,2013-03-05 10:05:00,
2013-03-05 03:15:00,17.6,13.0,30.17,NE,43,0.0,0.0,82,0.00,,,0.00,Wunderground v.1.12,2013-03-05 10:15:00,
2013-03-05 03:20:00,17.7,13.1,30.17,NE,43,0.0,0.0,82,0.00,,,0.00,Wunderground v.1.12,2013-03-05 10:20:00,
2013-03-05 03:25:00,17.6,13.0,30.17,NE,43,0.0,0.0,82,0.00,,,0.00,Wunderground v.1.12,2013-03-05 10:25:00,
2013-03-05 03:30:00,17.5,12.7,30.16,NE,43,0.0,0.0,81,0.00,,,0.00,Wunderground v.1.12,2013-03-05 10:30:00,
2013-03-05 03:35:00,17.5,12.7,30.16,NE,43,0.0,0.0,81,0.00,,,0.00,Wunderground v.1.12,2013-03-05 10:35:00,
2013-03-05 03:45:00,17.2,12.6,30.16,NE,43,0.0,0.0,82,0.00,,,0.00,Wunderground v.1.12,2013-03-05 10:45:00,
2013-03-05 03:50:00,17.2,12.6,30.16,NE,43,0.0,0.0,82,0.00,,,0.00,Wunderground v.1.12,2013-03-05 10:50:00,
2013-03-05 03:55:00,17.1,12.6,30.16,NE,43,0.0,0.0,82,0.00,,,0.00,Wunderground v.1.12,2013-03-05 10:55:00,
2013-03-05 04:00:00,17.0,12.5,30.16,NE,43,0.0,0.0,82,0.00,,,0.00,Wunderground v.1.12,2013-03-05 11:00:00,
2013-03-05 04:10:00,16.9,12.1,30.16,NE,43,0.0,0.0,81,0.00,,,0.00,Wunderground v.1.12,2013-03-05 11:10:00,
2013-03-05 04:15:00,16.9,12.4,30.16,NE,43,0.0,0.0,82,0.00,,,0.00,Wunderground v.1.12,2013-03-05 11:15:00,
2013-03-05 04:20:00,16.8,12.3,30.16,NE,43,0.0,0.0,82,0.00,,,0.00,Wunderground v.1.12,2013-03-05 11:20:00,
2013-03-05 04:25:00,16.6,12.1,30.16,NE,43,0.0,0.0,82,0.00,,,0.00,Wunderground v.1.12,2013-03-05 11:25:00,
2013-03-05 04:30:00,16.8,12.3,30.16,NE,43,0.0,0.0,82,0.00,,,0.00,Wunderground v.1.12,2013-03-05 11:30:00,
2013-03-05 04:35:00,16.7,12.2,30.16,NE,43,0.0,0.0,82,0.00,,,0.00,Wunderground v.1.12,2013-03-05 11:35:00,
2013-03-05 04:40:00,16.7,12.2,30.16,NE,43,0.0,0.0,82,0.00,,,0.00,Wunderground v.1.12,2013-03-05 11:40:00,
2013-03-05 04:50:00,16.4,11.9,30.16,NE,43,0.0,0.0,82,0.00,,,0.00,Wunderground v.1.12,2013-03-05 11:50:00,
2013-03-05 04:55:00,16.4,12.1,30.16,NE,43,0.0,0.0,83,0.00,,,0.00,Wunderground v.1.12,2013-03-05 11:55:00,
2013-03-05 05:00:00,16.4,12.1,30.17,NE,43,0.0,0.0,83,0.00,,,0.00,Wunderground v.1.12,2013-03-05 12:00:00,
2013-03-05 05:05:00,16.4,12.1,30.16,NE,43,0.0,0.0,83,0.00,,,0.00,Wunderground v.1.12,2013-03-05 12:05:00,
2013-03-05 05:10:00,16.3,12.0,30.16,NE,43,0.0,0.0,83,0.00,,,0.00,Wunderground v.1.12,2013-03-05 12:10:00,
2013-03-05 05:20:00,16.0,11.5,30.16,NE,43,0.0,0.0,82,0.00,,,0.00,Wunderground v.1.12,2013-03-05 12:20:00,
2013-03-05 05:25:00,16.2,11.7,30.16,NE,43,0.0,0.0,82,0.00,,,0.00,Wunderground v.1.12,2013-03-05 12:25:00,
2013-03-05 05:30:00,16.1,11.6,30.17,NE,43,0.0,0.0,82,0.00,,,0.00,Wunderground v.1.12,2013-03-05 12:30:00,
2013-03-05 05:35:00,16.0,11.5,30.16,NE,43,0.0,0.0,82,0.00,,,0.00,Wunderground v.1.12,2013-03-05 12:35:00,
2013-03-05 05:40:00,15.9,11.4,30.16,NE,43,0.0,0.0,82,0.00,,,0.00,Wunderground v.1.12,2013-03-05 12:40:00,
2013-03-05 05:45:00,15.8,11.3,30.16,NE,43,0.0,0.0,82,0.00,,,0.00,Wunderground v.1.12,2013-03-05 12:45:00,
2013-03-05 05:50:00,15.8,11.3,30.16,NE,43,0.0,0.0,82,0.00,,,0.00,Wunderground v.1.12,2013-03-05 12:50:00,
2013-03-05 05:55:00,15.6,11.1,30.16,NE,43,0.0,0.0,82,0.00,,,0.00,Wunderground v.1.12,2013-03-05 12:55:00,
2013-03-05 06:00:00,15.5,11.0,30.16,NE,43,0.0,0.0,82,0.00,,,0.00,Wunderground v.1.12,2013-03-05 13:00:00,
2013-03-05 06:05:00,15.5,11.0,30.16,NE,43,0.0,0.0,82,0.00,,,0.00,Wunderground v.1.12,2013-03-05 13:05:00,
2013-03-05 06:10:00,15.3,10.8,30.16,NE,43,0.0,0.0,82,0.00,,,0.00,Wunderground v.1.12,2013-03-05 13:10:00,
2013-03-05 06:15:00,15.4,10.9,30.16,NE,43,0.0,0.0,82,0.00,,,0.00,Wunderground v.1.12,2013-03-05 13:15:00,
2013-03-05 06:25:00,15.4,11.2,30.15,NE,43,0.0,0.0,83,0.00,,,0.00,Wunderground v.1.12,2013-03-05 13:25:00,
2013-03-05 06:30:00,15.4,11.2,30.15,NE,43,0.0,0.0,83,0.00,,,0.00,Wunderground v.1.12,2013-03-05 13:30:00,
2013-03-05 06:35:00,15.4,11.2,30.16,NE,43,0.0,0.0,83,0.00,,,0.00,Wunderground v.1.12,2013-03-05 13:35:00,
2013-03-05 06:40:00,15.5,11.3,30.16,NE,43,0.0,0.0,83,0.00,,,0.00,Wunderground v.1.12,2013-03-05 13:40:00,
2013-03-05 06:45:00,15.3,11.1,30.15,NE,43,0.0,0.0,83,0.00,,,0.00,Wunderground v.1.12,2013-03-05 13:45:00,
2013-03-05 06:55:00,15.4,11.4,30.16,NE,43,0.0,0.0,84,0.00,,,0.00,Wunderground v.1.12,2013-03-05 13:55:00,
2013-03-05 07:00:00,15.5,11.5,30.17,NE,43,0.0,0.0,84,0.00,,,0.00,Wunderground v.1.12,2013-03-05 14:00:00,
2013-03-05 07:05:00,15.6,11.6,30.17,NE,43,0.0,0.0,84,0.00,,,0.00,Wunderground v.1.12,2013-03-05 14:05:00,
2013-03-05 07:10:00,15.4,11.4,30.16,NE,43,0.0,0.0,84,0.00,,,0.00,Wunderground v.1.12,2013-03-05 14:10:00,
2013-03-05 07:15:00,15.6,11.6,30.16,NE,43,0.0,0.0,84,0.00,,,0.00,Wunderground v.1.12,2013-03-05 14:15:00,
2013-03-05 07:20:00,15.3,11.3,30.16,NE,43,0.0,0.0,84,0.00,,,0.00,Wunderground v.1.12,2013-03-05 14:20:00,
2013-03-05 07:25:00,15.4,11.4,30.16,NE,43,0.0,0.0,84,0.00,,,0.00,Wunderground v.1.12,2013-03-05 14:25:00,
2013-03-05 07:30:00,15.6,11.6,30.16,NE,43,0.0,0.0,84,0.00,,,0.00,Wunderground v.1.12,2013-03-05 14:30:00,
2013-03-05 07:35:00,15.5,11.5,30.16,N/A,-737280,0.0,0.0,84,0.00,,,0.00,Wunderground v.1.12,2013-03-05 14:35:00,
2013-03-05 07:40:00,15.6,11.6,30.16,NE,43,0.0,0.0,84,0.00,,,0.00,Wunderground v.1.12,2013-03-05 14:40:00,
2013-03-05 07:45:00,15.7,12.0,30.16,NE,43,0.0,0.0,85,0.00,,,0.00,Wunderground v.1.12,2013-03-05 14:45:00,
2013-03-05 07:50:00,16.0,12.3,30.16,NE,43,0.0,0.0,85,0.00,,,0.00,Wunderground v.1.12,2013-03-05 14:50:00,
2013-03-05 08:00:00,16.3,12.6,30.16,NE,43,0.0,0.0,85,0.00,,,0.00,Wunderground v.1.12,2013-03-05 15:00:00,
2013-03-05 08:05:00,16.6,13.1,30.16,NE,43,0.0,0.0,86,0.00,,,0.00,Wunderground v.1.12,2013-03-05 15:05:00,
2013-03-05 08:10:00,16.9,14.0,30.16,NE,43,0.0,0.0,88,0.00,,,0.00,Wunderground v.1.12,2013-03-05 15:10:00,
2013-03-05 08:15:00,17.3,14.4,30.16,NE,43,0.0,0.0,88,0.00,,,0.00,Wunderground v.1.12,2013-03-05 15:15:00,
2013-03-05 08:20:00,17.8,15.1,30.16,NE,43,0.0,0.0,89,0.00,,,0.00,Wunderground v.1.12,2013-03-05 15:20:00,
2013-03-05 08:25:00,18.0,15.6,30.16,NE,43,0.0,0.0,90,0.00,,,0.00,Wunderground v.1.12,2013-03-05 15:25:00,
2013-03-05 08:35:00,18.8,16.4,30.16,NE,43,0.0,0.0,90,0.00,,,0.00,Wunderground v.1.12,2013-03-05 15:35:00,
2013-03-05 08:40:00,19.2,16.7,30.16,NE,43,0.0,0.0,90,0.00,,,0.00,Wunderground v.1.12,2013-03-05 15:40:00,
2013-03-05 08:45:00,19.5,17.0,30.16,NE,43,0.0,0.0,90,0.00,,,0.00,Wunderground v.1.12,2013-03-05 15:45:00,
2013-03-05 08:50:00,19.9,17.4,30.16,NE,43,0.0,0.0,90,0.00,,,0.00,Wunderground v.1.12,2013-03-05 15:50:00,
2013-03-05 09:00:00,21.2,19.0,30.16,NE,43,0.0,0.0,91,0.00,,,0.00,Wunderground v.1.12,2013-03-05 16:00:00,
2013-03-05 09:05:00,21.7,-99.9,30.16,NE,43,0.0,0.0,255,0.00,,,0.00,Wunderground v.1.12,2013-03-05 16:05:00,
2013-03-05 09:10:00,22.0,-99.9,30.15,NE,37,0.0,0.0,255,0.00,,,0.00,Wunderground v.1.12,2013-03-05 16:10:00,
2013-03-05 09:20:00,22.6,19.8,30.15,SSE,158,0.0,0.0,89,0.00,,,0.00,Wunderground v.1.12,2013-03-05 16:20:00,
2013-03-05 09:25:00,22.9,19.9,30.15,SSE,159,0.0,0.0,88,0.00,,,0.00,Wunderground v.1.12,2013-03-05 16:25:00,
2013-03-05 09:30:00,23.4,20.9,30.14,SSE,159,0.0,0.0,90,0.00,,,0.00,Wunderground v.1.12,2013-03-05 16:30:00,
2013-03-05 09:35:00,24.1,21.1,30.15,SW,222,0.0,0.0,88,0.00,,,0.00,Wunderground v.1.12,2013-03-05 16:35:00,
2013-03-05 09:40:00,24.7,21.4,30.14,SW,221,0.0,0.0,87,0.00,,,0.00,Wunderground v.1.12,2013-03-05 16:40:00,
2013-03-05 09:45:00,24.7,20.6,30.14,SW,221,0.0,0.0,84,0.00,,,0.00,Wunderground v.1.12,2013-03-05 16:45:00,
2013-03-05 09:50:00,25.0,20.8,30.14,West,263,0.0,0.0,84,0.00,,,0.00,Wunderground v.1.12,2013-03-05 16:50:00,
2013-03-05 10:00:00,25.8,21.3,30.13,West,260,0.0,0.0,83,0.00,,,0.00,Wunderground v.1.12,2013-03-05 17:00:00,
2013-03-05 10:05:00,26.3,21.6,30.14,West,260,0.0,0.0,82,0.00,,,0.00,Wunderground v.1.12,2013-03-05 17:05:00,
2013-03-05 10:15:00,27.0,21.7,30.13,WSW,257,0.0,0.0,80,0.00,,,0.00,Wunderground v.1.12,2013-03-05 17:15:00,
2013-03-05 10:20:00,27.4,21.7,30.13,WSW,257,0.0,0.0,79,0.00,,,0.00,Wunderground v.1.12,2013-03-05 17:20:00,
2013-03-05 10:25:00,27.4,21.1,30.13,WSW,243,0.0,0.0,77,0.00,,,0.00,Wunderground v.1.12,2013-03-05 17:25:00,
2013-03-05 10:30:00,27.3,21.3,30.13,South,184,0.0,0.0,78,0.00,,,0.00,Wunderground v.1.12,2013-03-05 17:30:00,
2013-03-05 10:35:00,28.0,22.0,30.12,WSW,254,0.0,0.0,78,0.00,,,0.00,Wunderground v.1.12,2013-03-05 17:35:00,
2013-03-05 10:45:00,29.3,22.7,30.12,WSW,254,0.0,0.0,76,0.00,,,0.00,Wunderground v.1.12,2013-03-05 17:45:00,
2013-03-05 10:50:00,29.4,22.5,30.11,WSW,257,0.0,0.0,75,0.00,,,0.00,Wunderground v.1.12,2013-03-05 17:50:00,
2013-03-05 10:55:00,30.1,22.2,30.11,SW,236,0.0,0.0,72,0.00,,,0.00,Wunderground v.1.12,2013-03-05 17:55:00,
2013-03-05 11:00:00,30.4,23.1,30.11,North,0,0.0,0.0,74,0.00,,,0.00,Wunderground v.1.12,2013-03-05 18:00:00,
2013-03-05 11:05:00,30.3,22.4,30.11,WSW,249,0.0,0.0,72,0.00,,,0.00,Wunderground v.1.12,2013-03-05 18:05:00,
2013-03-05 11:10:00,30.3,22.0,30.11,SW,235,0.0,0.0,71,0.00,,,0.00,Wunderground v.1.12,2013-03-05 18:10:00,
2013-03-05 11:15:00,30.3,22.4,30.10,WSW,240,0.0,0.0,72,0.00,,,0.00,Wunderground v.1.12,2013-03-05 18:15:00,
2013-03-05 11:20:00,30.5,22.5,30.10,SW,236,0.0,0.0,72,0.00,,,0.00,Wunderground v.1.12,2013-03-05 18:20:00,
2013-03-05 11:25:00,30.5,22.5,30.10,WSW,250,0.0,0.0,72,0.00,,,0.00,Wunderground v.1.12,2013-03-05 18:25:00,
2013-03-05 11:30:00,31.0,23.0,30.10,SW,234,0.0,0.0,72,0.00,,,0.00,Wunderground v.1.12,2013-03-05 18:30:00,
2013-03-05 11:35:00,31.0,22.4,30.09,WSW,250,0.0,0.0,70,0.00,,,0.00,Wunderground v.1.12,2013-03-05 18:35:00,
2013-03-05 11:40:00,30.5,21.9,30.09,WSW,246,0.0,0.0,70,0.00,,,0.00,Wunderground v.1.12,2013-03-05 18:40:00,
2013-03-05 11:50:00,30.8,21.1,30.09,SSW,200,0.0,0.0,67,0.00,,,0.00,Wunderground v.1.12,2013-03-05 18:50:00,
2013-03-05 11:55:00,30.9,22.3,30.09,SW,236,0.0,0.0,70,0.00,,,0.00,Wunderground v.1.12,2013-03-05 18:55:00,
2013-03-05 12:00:00,31.2,22.2,30.08,SW,230,0.0,0.0,69,0.00,,,0.00,Wunderground v.1.12,2013-03-05 19:00:00,
2013-03-05 12:05:00,31.1,21.8,30.08,SW,229,0.0,0.0,68,0.00,,,0.00,Wunderground v.1.12,2013-03-05 19:05:00,
2013-03-05 12:10:00,31.2,21.2,30.08,SW,218,0.0,0.0,66,0.00,,,0.00,Wunderground v.1.12,2013-03-05 19:10:00,
2013-03-05 12:20:00,30.8,22.2,30.08,SSW,196,0.0,0.0,70,0.00,,,0.00,Wunderground v.1.12,2013-03-05 19:20:00,
2013-03-05 12:25:00,31.2,22.2,30.08,SSW,193,0.0,0.0,69,0.00,,,0.00,Wunderground v.1.12,2013-03-05 19:25:00,
2013-03-05 12:30:00,31.4,21.7,30.07,SSW,193,0.0,0.0,67,0.00,,,0.00,Wunderground v.1.12,2013-03-05 19:30:00,
2013-03-05 12:35:00,31.0,21.3,30.07,SW,215,0.0,0.0,67,0.00,,,0.00,Wunderground v.1.12,2013-03-05 19:35:00,
2013-03-05 12:40:00,31.1,22.1,30.07,SW,233,0.0,0.0,69,0.00,,,0.00,Wunderground v.1.12,2013-03-05 19:40:00,
2013-03-05 12:45:00,31.3,21.6,30.07,NNW,331,0.0,0.0,67,0.00,,,0.00,Wunderground v.1.12,2013-03-05 19:45:00,
2013-03-05 12:55:00,31.7,22.7,30.06,SW,234,0.0,0.0,69,0.00,,,0.00,Wunderground v.1.12,2013-03-05 19:55:00,
2013-03-05 13:00:00,32.2,22.8,30.06,WSW,243,0.0,0.0,68,0.00,,,0.00,Wunderground v.1.12,2013-03-05 20:00:00,
2013-03-05 13:05:00,32.1,22.0,30.05,SW,229,0.0,0.0,66,0.00,,,0.00,Wunderground v.1.12,2013-03-05 20:05:00,
2013-03-05 13:10:00,32.1,22.0,30.05,WSW,240,0.0,0.0,66,0.00,,,0.00,Wunderground v.1.12,2013-03-05 20:10:00,
2013-03-05 13:15:00,32.7,22.9,30.05,SW,236,0.0,0.0,67,0.00,,,0.00,Wunderground v.1.12,2013-03-05 20:15:00,
2013-03-05 13:25:00,32.6,21.8,30.05,WSW,237,0.0,0.0,64,0.00,,,0.00,Wunderground v.1.12,2013-03-05 20:25:00,
2013-03-05 13:30:00,32.8,23.0,30.04,North,0,0.0,0.0,67,0.00,,,0.00,Wunderground v.1.12,2013-03-05 20:30:00,
2013-03-05 13:35:00,32.5,23.5,30.05,N/A,-737280,0.0,1.0,69,0.00,,,0.00,Wunderground v.1.12,2013-03-05 20:35:00,
2013-03-05 13:40:00,33.4,23.3,30.04,SSW,208,0.0,0.0,66,0.00,,,0.00,Wunderground v.1.12,2013-03-05 20:40:00,
2013-03-05 13:45:00,33.5,23.0,30.03,SSW,208,0.0,0.0,65,0.00,,,0.00,Wunderground v.1.12,2013-03-05 20:45:00,
2013-03-05 13:50:00,33.7,23.5,30.03,WSW,251,0.0,0.0,66,0.00,,,0.00,Wunderground v.1.12,2013-03-05 20:50:00,
2013-03-05 14:00:00,33.8,23.6,30.03,SW,227,0.0,0.0,66,0.00,,,0.00,Wunderground v.1.12,2013-03-05 21:00:00,
2013-03-05 14:05:00,33.8,22.9,30.02,South,183,0.0,0.0,64,0.00,,,0.00,Wunderground v.1.12,2013-03-05 21:05:00,
2013-03-05 14:10:00,33.7,22.8,30.02,SSW,192,0.0,0.0,64,0.00,,,0.00,Wunderground v.1.12,2013-03-05 21:10:00,
2013-03-05 14:15:00,34.0,23.1,30.02,SSW,192,0.0,0.0,64,0.00,,,0.00,Wunderground v.1.12,2013-03-05 21:15:00,
2013-03-05 14:20:00,33.9,23.0,30.02,SSW,192,0.0,0.0,64,0.00,,,0.00,Wunderground v.1.12,2013-03-05 21:20:00,
2013-03-05 14:25:00,34.1,23.2,30.02,SSW,192,0.0,0.0,64,0.00,,,0.00,Wunderground v.1.12,2013-03-05 21:25:00,
2013-03-05 14:30:00,34.3,23.0,30.02,SSW,192,0.0,0.0,63,0.00,,,0.00,Wunderground v.1.12,2013-03-05 21:30:00,
2013-03-05 14:35:00,34.1,22.4,30.02,SSW,192,0.0,0.0,62,0.00,,,0.00,Wunderground v.1.12,2013-03-05 21:35:00,
2013-03-05 14:40:00,33.9,22.2,30.01,SSW,192,0.0,0.0,62,0.00,,,0.00,Wunderground v.1.12,2013-03-05 21:40:00,
2013-03-05 14:45:00,33.8,22.5,30.01,SSW,192,0.0,0.0,63,0.00,,,0.00,Wunderground v.1.12,2013-03-05 21:45:00,
2013-03-05 14:50:00,34.0,23.1,30.01,SSW,192,0.0,0.0,64,0.00,,,0.00,Wunderground v.1.12,2013-03-05 21:50:00,
2013-03-05 15:00:00,34.5,23.2,30.00,WSW,244,0.0,0.0,63,0.00,,,0.00,Wunderground v.1.12,2013-03-05 22:00:00,
2013-03-05 15:05:00,34.3,22.6,30.00,SSW,192,0.0,0.0,62,0.00,,,0.00,Wunderground v.1.12,2013-03-05 22:05:00,
2013-03-05 15:10:00,34.4,23.5,30.00,SSW,192,0.0,0.0,64,0.00,,,0.00,Wunderground v.1.12,2013-03-05 22:10:00,
2013-03-05 15:15:00,34.8,23.9,30.00,SSW,192,0.0,0.0,64,0.00,,,0.00,Wunderground v.1.12,2013-03-05 22:15:00,
2013-03-05 15:20:00,35.0,23.3,30.00,SSW,192,0.0,0.0,62,0.00,,,0.00,Wunderground v.1.12,2013-03-05 22:20:00,
2013-03-05 15:25:00,35.3,23.6,30.00,SSW,192,0.0,0.0,62,0.00,,,0.00,Wunderground v.1.12,2013-03-05 22:25:00,
2013-03-05 15:35:00,34.8,23.9,30.00,N/A,-737280,0.0,0.0,64,0.00,,,0.00,Wunderground v.1.12,2013-03-05 22:35:00,
2013-03-05 15:40:00,35.6,24.2,29.99,SSW,192,0.0,0.0,63,0.00,,,0.00,Wunderground v.1.12,2013-03-05 22:40:00,
2013-03-05 15:45:00,35.6,24.6,29.99,SSW,192,0.0,0.0,64,0.00,,,0.00,Wunderground v.1.12,2013-03-05 22:45:00,
2013-03-05 15:50:00,35.6,24.6,29.99,SSW,192,0.0,0.0,64,0.00,,,0.00,Wunderground v.1.12,2013-03-05 22:50:00,
2013-03-05 15:55:00,35.4,23.3,29.99,SSW,192,0.0,0.0,61,0.00,,,0.00,Wunderground v.1.12,2013-03-05 22:55:00,
2013-03-05 16:00:00,35.2,23.1,29.99,SSW,192,0.0,0.0,61,0.00,,,0.00,Wunderground v.1.12,2013-03-05 23:00:00,
2013-03-05 16:05:00,35.5,24.1,29.99,N/A,-737280,0.0,0.0,63,0.00,,,0.00,Wunderground v.1.12,2013-03-05 23:05:00,
2013-03-05 16:10:00,35.3,24.3,29.99,SSW,192,0.0,0.0,64,0.00,,,0.00,Wunderground v.1.12,2013-03-05 23:10:00,
2013-03-05 16:15:00,35.5,24.5,29.98,SSW,192,0.0,0.0,64,0.00,,,0.00,Wunderground v.1.12,2013-03-05 23:15:00,
2013-03-05 16:20:00,35.3,24.3,29.98,SSW,192,0.0,0.0,64,0.00,,,0.00,Wunderground v.1.12,2013-03-05 23:20:00,
2013-03-05 16:25:00,35.2,23.9,29.98,SSW,192,0.0,0.0,63,0.00,,,0.00,Wunderground v.1.12,2013-03-05 23:25:00,
2013-03-05 16:35:00,35.3,24.0,29.98,SSW,193,0.0,0.0,63,0.00,,,0.00,Wunderground v.1.12,2013-03-05 23:35:00,
2013-03-05 16:40:00,35.3,24.3,29.98,SSW,192,0.0,0.0,64,0.00,,,0.00,Wunderground v.1.12,2013-03-05 23:40:00,
2013-03-05 16:45:00,35.3,24.3,29.98,SSW,192,0.0,0.0,64,0.00,,,0.00,Wunderground v.1.12,2013-03-05 23:45:00,
2013-03-05 16:50:00,35.3,24.3,29.98,SSW,192,0.0,0.0,64,0.00,,,0.00,Wunderground v.1.12,2013-03-05 23:50:00,
2013-03-05 16:55:00,35.1,24.5,29.98,SSW,192,0.0,0.0,65,0.00,,,0.00,Wunderground v.1.12,2013-03-05 23:55:00,
2013-03-05 17:00:00,35.2,24.6,29.98,SSW,192,0.0,0.0,65,0.00,,,0.00,Wunderground v.1.12,2013-03-06 00:00:00,
2013-03-05 17:10:00,35.0,24.8,29.98,SSW,192,0.0,0.0,66,0.00,,,0.00,Wunderground v.1.12,2013-03-06 00:10:00,
2013-03-05 17:15:00,34.8,25.0,29.97,SSW,192,0.0,0.0,67,0.00,,,0.00,Wunderground v.1.12,2013-03-06 00:15:00,
2013-03-05 17:20:00,34.6,25.1,29.97,SSW,192,0.0,0.0,68,0.00,,,0.00,Wunderground v.1.12,2013-03-06 00:20:00,
2013-03-05 17:25:00,34.3,24.5,29.97,SSW,192,0.0,0.0,67,0.00,,,0.00,Wunderground v.1.12,2013-03-06 00:25:00,
2013-03-05 17:30:00,34.4,24.2,29.97,SSW,192,0.0,0.0,66,0.00,,,0.00,Wunderground v.1.12,2013-03-06 00:30:00,
2013-03-05 17:35:00,34.1,23.9,29.97,SSW,192,0.0,0.0,66,0.00,,,0.00,Wunderground v.1.12,2013-03-06 00:35:00,
2013-03-05 17:40:00,33.9,23.7,29.97,SSW,192,0.0,0.0,66,0.00,,,0.00,Wunderground v.1.12,2013-03-06 00:40:00,
2013-03-05 17:45:00,34.0,23.5,29.97,SSW,192,0.0,0.0,65,0.00,,,0.00,Wunderground v.1.12,2013-03-06 00:45:00,
2013-03-05 17:50:00,33.9,23.7,29.97,SSW,192,0.0,0.0,66,0.00,,,0.00,Wunderground v.1.12,2013-03-06 00:50:00,
2013-03-05 17:55:00,33.6,23.8,29.98,SSW,192,0.0,0.0,67,0.00,,,0.00,Wunderground v.1.12,2013-03-06 00:55:00,
2013-03-05 18:00:00,33.8,24.0,29.97,SSW,192,0.0,0.0,67,0.00,,,0.00,Wunderground v.1.12,2013-03-06 01:00:00,
2013-03-05 18:10:00,33.3,23.9,29.97,SSW,192,0.0,0.0,68,0.00,,,0.00,Wunderground v.1.12,2013-03-06 01:10:00,
2013-03-05 18:15:00,33.4,24.0,29.97,SSW,192,0.0,0.0,68,0.00,,,0.00,Wunderground v.1.12,2013-03-06 01:15:00,
2013-03-05 18:25:00,32.7,24.0,29.97,SSW,192,0.0,0.0,70,0.00,,,0.00,Wunderground v.1.12,2013-03-06 01:25:00,
2013-03-05 18:30:00,32.7,24.3,29.97,SSW,192,0.0,0.0,71,0.00,,,0.00,Wunderground v.1.12,2013-03-06 01:30:00,
2013-03-05 18:35:00,32.9,24.9,29.97,SSW,192,0.0,0.0,72,0.00,,,0.00,Wunderground v.1.12,2013-03-06 01:35:00,
2013-03-05 18:40:00,32.5,24.8,29.97,SSW,192,0.0,0.0,73,0.00,,,0.00,Wunderground v.1.12,2013-03-06 01:40:00,
2013-03-05 18:45:00,32.6,24.9,29.98,SSW,192,0.0,0.0,73,0.00,,,0.00,Wunderground v.1.12,2013-03-06 01:45:00,
2013-03-05 18:55:00,32.5,25.1,29.98,SSW,192,0.0,0.0,74,0.00,,,0.00,Wunderground v.1.12,2013-03-06 01:55:00,
2013-03-05 19:00:00,32.2,25.2,29.98,SSW,192,0.0,0.0,75,0.00,,,0.00,Wunderground v.1.12,2013-03-06 02:00:00,
2013-03-05 19:05:00,32.5,25.5,29.98,SSW,192,0.0,0.0,75,0.00,,,0.00,Wunderground v.1.12,2013-03-06 02:05:00,
2013-03-05 19:15:00,32.2,25.8,29.98,SSW,192,0.0,0.0,77,0.00,,,0.00,Wunderground v.1.12,2013-03-06 02:15:00,
2013-03-05 19:20:00,32.1,25.4,29.98,SSW,192,0.0,0.0,76,0.00,,,0.00,Wunderground v.1.12,2013-03-06 02:20:00,
2013-03-05 19:25:00,32.1,25.4,29.98,North,0,0.0,0.0,76,0.00,,,0.00,Wunderground v.1.12,2013-03-06 02:25:00,
2013-03-05 19:30:00,32.0,24.6,29.98,North,0,0.0,0.0,74,0.00,,,0.00,Wunderground v.1.12,2013-03-06 02:30:00,
2013-03-05 19:40:00,32.1,25.4,29.98,North,0,0.0,0.0,76,0.00,,,0.00,Wunderground v.1.12,2013-03-06 02:40:00,
2013-03-05 19:50:00,32.0,25.9,29.98,North,0,0.0,0.0,78,0.00,,,0.00,Wunderground v.1.12,2013-03-06 02:50:00,
2013-03-05 19:55:00,32.1,26.3,29.98,North,0,0.0,0.0,79,0.00,,,0.00,Wunderground v.1.12,2013-03-06 02:55:00,
2013-03-05 20:00:00,31.8,26.3,29.98,North,0,0.0,0.0,80,0.00,,,0.00,Wunderground v.1.12,2013-03-06 03:00:00,
2013-03-05 20:05:00,32.1,26.6,29.98,North,0,0.0,0.0,80,0.00,,,0.00,Wunderground v.1.12,2013-03-06 03:05:00,
2013-03-05 20:10:00,31.7,26.5,29.98,North,0,0.0,0.0,81,0.00,,,0.00,Wunderground v.1.12,2013-03-06 03:10:00,
2013-03-05 20:15:00,31.9,26.4,29.98,North,0,0.0,0.0,80,0.00,,,0.00,Wunderground v.1.12,2013-03-06 03:15:00,
2013-03-05 20:20:00,31.3,26.7,29.98,North,0,0.0,0.0,83,0.00,,,0.00,Wunderground v.1.12,2013-03-06 03:20:00,
2013-03-05 20:25:00,31.5,27.2,29.97,North,0,0.0,0.0,84,0.00,,,0.00,Wunderground v.1.12,2013-03-06 03:25:00,
2013-03-05 20:30:00,31.2,26.6,29.97,North,0,0.0,0.0,83,0.00,,,0.00,Wunderground v.1.12,2013-03-06 03:30:00,
2013-03-05 20:35:00,31.4,26.8,29.97,North,0,0.0,0.0,83,0.00,,,0.00,Wunderground v.1.12,2013-03-06 03:35:00,
2013-03-05 20:40:00,31.2,26.6,29.97,North,0,0.0,0.0,83,0.00,,,0.00,Wunderground v.1.12,2013-03-06 03:40:00,
2013-03-05 20:50:00,31.1,26.5,29.97,North,0,0.0,0.0,83,0.00,,,0.00,Wunderground v.1.12,2013-03-06 03:50:00,
2013-03-05 20:55:00,31.6,27.0,29.97,North,0,0.0,0.0,83,0.00,,,0.00,Wunderground v.1.12,2013-03-06 03:55:00,
2013-03-05 21:00:00,31.3,26.7,29.97,North,0,0.0,0.0,83,0.00,,,0.00,Wunderground v.1.12,2013-03-06 04:00:00,
2013-03-05 21:05:00,31.0,26.4,29.97,North,0,0.0,0.0,83,0.00,,,0.00,Wunderground v.1.12,2013-03-06 04:05:00,
2013-03-05 21:10:00,30.9,26.3,29.97,North,0,0.0,0.0,83,0.00,,,0.00,Wunderground v.1.12,2013-03-06 04:10:00,
2013-03-05 21:15:00,31.1,26.5,29.96,North,0,0.0,0.0,83,0.00,,,0.00,Wunderground v.1.12,2013-03-06 04:15:00,
2013-03-05 21:20:00,31.0,26.4,29.96,North,0,0.0,0.0,83,0.00,,,0.00,Wunderground v.1.12,2013-03-06 04:20:00,
2013-03-05 21:25:00,30.9,26.6,29.96,North,0,0.0,0.0,84,0.00,,,0.00,Wunderground v.1.12,2013-03-06 04:25:00,
2013-03-05 21:30:00,30.7,26.4,29.96,North,0,0.0,0.0,84,0.00,,,0.00,Wunderground v.1.12,2013-03-06 04:30:00,
2013-03-05 21:35:00,30.7,26.4,29.96,North,0,0.0,0.0,84,0.00,,,0.00,Wunderground v.1.12,2013-03-06 04:35:00,
2013-03-05 21:40:00,31.0,26.7,29.96,North,0,0.0,0.0,84,0.00,,,0.00,Wunderground v.1.12,2013-03-06 04:40:00,
2013-03-05 21:45:00,31.0,27.0,29.96,North,0,0.0,0.0,85,0.00,,,0.00,Wunderground v.1.12,2013-03-06 04:45:00,
2013-03-05 21:55:00,30.9,27.5,29.96,North,0,0.0,0.0,87,0.00,,,0.00,Wunderground v.1.12,2013-03-06 04:55:00,
2013-03-05 22:00:00,30.7,27.6,29.96,North,0,0.0,0.0,88,0.00,,,0.00,Wunderground v.1.12,2013-03-06 05:00:00,
2013-03-05 22:05:00,30.7,27.6,29.96,North,0,0.0,0.0,88,0.00,,,0.00,Wunderground v.1.12,2013-03-06 05:05:00,
2013-03-05 22:10:00,30.8,27.7,29.95,North,0,0.0,0.0,88,0.00,,,0.00,Wunderground v.1.12,2013-03-06 05:10:00,
2013-03-05 22:15:00,30.6,27.5,29.96,North,0,0.0,0.0,88,0.00,,,0.00,Wunderground v.1.12,2013-03-06 05:15:00,
2013-03-05 22:20:00,30.4,27.3,29.96,North,0,0.0,0.0,88,0.00,,,0.00,Wunderground v.1.12,2013-03-06 05:20:00,
2013-03-05 22:25:00,30.6,27.5,29.96,North,0,0.0,0.0,88,0.00,,,0.00,Wunderground v.1.12,2013-03-06 05:25:00,
2013-03-05 22:30:00,30.7,27.6,29.96,North,0,0.0,0.0,88,0.00,,,0.00,Wunderground v.1.12,2013-03-06 05:30:00,
2013-03-05 22:35:00,30.3,26.9,29.96,North,0,0.0,0.0,87,0.00,,,0.00,Wunderground v.1.12,2013-03-06 05:35:00,
2013-03-05 22:40:00,30.5,27.1,29.96,North,0,0.0,0.0,87,0.00,,,0.00,Wunderground v.1.12,2013-03-06 05:40:00,
2013-03-05 22:45:00,30.5,27.1,29.95,North,0,0.0,0.0,87,0.00,,,0.00,Wunderground v.1.12,2013-03-06 05:45:00,
2013-03-05 22:50:00,30.4,27.0,29.95,North,0,0.0,0.0,87,0.00,,,0.00,Wunderground v.1.12,2013-03-06 05:50:00,
2013-03-05 22:55:00,30.8,27.1,29.95,North,0,0.0,0.0,86,0.00,,,0.00,Wunderground v.1.12,2013-03-06 05:55:00,
2013-03-05 23:00:00,30.6,27.2,29.95,North,0,0.0,0.0,87,0.00,,,0.00,Wunderground v.1.12,2013-03-06 06:00:00,
2013-03-05 23:05:00,30.4,27.0,29.95,North,0,0.0,0.0,87,0.00,,,0.00,Wunderground v.1.12,2013-03-06 06:05:00,
2013-03-05 23:10:00,30.5,26.8,29.95,North,0,0.0,0.0,86,0.00,,,0.00,Wunderground v.1.12,2013-03-06 06:10:00,
2013-03-05 23:15:00,30.5,26.8,29.94,North,0,0.0,0.0,86,0.00,,,0.00,Wunderground v.1.12,2013-03-06 06:15:00,
2013-03-05 23:20:00,30.4,26.7,29.94,North,0,0.0,0.0,86,0.00,,,0.00,Wunderground v.1.12,2013-03-06 06:20:00,
2013-03-05 23:30:00,30.5,26.8,29.94,North,0,0.0,0.0,86,0.00,,,0.00,Wunderground v.1.12,2013-03-06 06:30:00,
2013-03-05 23:35:00,30.4,26.7,29.94,North,0,0.0,0.0,86,0.00,,,0.00,Wunderground v.1.12,2013-03-06 06:35:00,
2013-03-05 23:40:00,30.3,26.9,29.94,North,0,0.0,0.0,87,0.00,,,0.00,Wunderground v.1.12,2013-03-06 06:40:00,
2013-03-05 23:45:00,30.1,26.7,29.94,North,0,0.0,0.0,87,0.00,,,0.00,Wunderground v.1.12,2013-03-06 06:45:00,
2013-03-05 23:50:00,30.1,26.7,29.94,North,0,0.0,0.0,87,0.00,,,0.00,Wunderground v.1.12,2013-03-06 06:50:00,